DG4 weather

CLOSED Hornes Gulch Airport
New Brunswick, Canada

Public forecast

Using degrees Celsius for public forecast. Weather courtesy of forecast.io.

METAR (pilot weather report)

Closest report is Northern Aroostook Regional Airport, 36.8 nm (68.1 km) SSW. Retrieved 2019/05/19 15:53 UTC (54 minutes ago):

KFVE 191553Z AUTO 17005KT 10SM BKN110 14/02 A3006 RMK AO2 SLP180 T01440022

TAF (pilot weather forecast)

Closest forecast is Northern Aroostook Regional Airport, 36.8 nm (68.1 km) SSW. Retrieved 2019/05/19 12:22 UTC (4 hours ago):

TAF KFVE 191120Z 1912/2012 18003KT P6SM OVC250 FM191700 20007KT P6SM VCSH OVC035 FM200100 17006KT 5SM -RA OVC022 FM200500 14008KT 3SM -RA OVC009 FM201000 14009KT 5SM -RADZ OVC007